sensor_id;sensor_type;location;lat;lon;timestamp;pressure;altitude;pressure_sealevel;temperature;humidity
76448;BME280;65284;51.040;13.722;2023-01-05T00:01:04;99405.09;;;10.96;69.31
76448;BME280;65284;51.040;13.722;2023-01-05T00:03:31;99398.84;;;10.88;69.58
76448;BME280;65284;51.040;13.722;2023-01-05T00:06:09;99406.75;;;10.97;68.89
76448;BME280;65284;51.040;13.722;2023-01-05T00:08:37;99395.22;;;11.04;68.24
76448;BME280;65284;51.040;13.722;2023-01-05T00:11:15;99373.16;;;11.04;67.83
76448;BME280;65284;51.040;13.722;2023-01-05T00:14:01;99413.47;;;11.07;67.49
76448;BME280;65284;51.040;13.722;2023-01-05T00:16:46;99386.34;;;11.12;67.08
76448;BME280;65284;51.040;13.722;2023-01-05T00:19:31;99390.59;;;11.21;66.17
76448;BME280;65284;51.040;13.722;2023-01-05T00:22:22;99395.56;;;11.24;65.92
76448;BME280;65284;51.040;13.722;2023-01-05T00:25:18;99401.25;;;11.21;66.10
76448;BME280;65284;51.040;13.722;2023-01-05T00:27:46;99382.91;;;11.26;66.16
76448;BME280;65284;51.040;13.722;2023-01-05T00:30:15;99413.16;;;11.25;65.88
76448;BME280;65284;51.040;13.722;2023-01-05T00:32:42;99390.88;;;11.26;65.42
76448;BME280;65284;51.040;13.722;2023-01-05T00:35:10;99390.88;;;11.26;65.91
76448;BME280;65284;51.040;13.722;2023-01-05T00:37:38;99400.03;;;11.24;65.72
76448;BME280;65284;51.040;13.722;2023-01-05T00:40:06;99390.25;;;11.24;65.52
76448;BME280;65284;51.040;13.722;2023-01-05T00:42:33;99419.75;;;11.29;64.94
76448;BME280;65284;51.040;13.722;2023-01-05T00:44:59;99408.75;;;11.32;64.93
76448;BME280;65284;51.040;13.722;2023-01-05T00:47:26;99405.47;;;11.30;65.01
76448;BME280;65284;51.040;13.722;2023-01-05T00:49:52;99412.78;;;11.28;65.42
76448;BME280;65284;51.040;13.722;2023-01-05T00:52:19;99442.19;;;11.27;65.96
76448;BME280;65284;51.040;13.722;2023-01-05T00:54:45;99400.88;;;11.24;65.82
76448;BME280;65284;51.040;13.722;2023-01-05T00:57:12;99404.53;;;11.23;65.83
76448;BME280;65284;51.040;13.722;2023-01-05T00:59:39;99397.56;;;11.22;66.16
76448;BME280;65284;51.040;13.722;2023-01-05T01:02:06;99377.78;;;11.25;66.00
76448;BME280;65284;51.040;13.722;2023-01-05T01:04:33;99391.22;;;11.23;66.11
76448;BME280;65284;51.040;13.722;2023-01-05T01:07:00;99402.06;;;11.22;66.16
76448;BME280;65284;51.040;13.722;2023-01-05T01:09:27;99399.56;;;11.20;66.26
76448;BME280;65284;51.040;13.722;2023-01-05T01:11:53;99411.56;;;11.16;66.62
76448;BME280;65284;51.040;13.722;2023-01-05T01:14:20;99402.22;;;11.20;66.80
76448;BME280;65284;51.040;13.722;2023-01-05T01:16:46;99401.31;;;11.13;67.16
76448;BME280;65284;51.040;13.722;2023-01-05T01:19:15;99403.97;;;11.13;67.58
76448;BME280;65284;51.040;13.722;2023-01-05T01:21:44;99411.47;;;11.09;68.00
76448;BME280;65284;51.040;13.722;2023-01-05T01:24:20;99427.28;;;11.03;68.40
76448;BME280;65284;51.040;13.722;2023-01-05T01:26:47;99411.63;;;11.08;68.19
76448;BME280;65284;51.040;13.722;2023-01-05T01:29:13;99398.66;;;11.13;67.30
76448;BME280;65284;51.040;13.722;2023-01-05T01:31:44;99389.34;;;11.09;67.55
76448;BME280;65284;51.040;13.722;2023-01-05T01:34:11;99378.09;;;11.07;67.50
76448;BME280;65284;51.040;13.722;2023-01-05T01:36:38;99392.38;;;11.06;67.58
76448;BME280;65284;51.040;13.722;2023-01-05T01:39:04;99404.69;;;11.07;67.24
76448;BME280;65284;51.040;13.722;2023-01-05T01:41:31;99408.47;;;11.12;66.87
76448;BME280;65284;51.040;13.722;2023-01-05T01:43:57;99422.25;;;11.08;66.60
76448;BME280;65284;51.040;13.722;2023-01-05T01:46:25;99424.41;;;11.12;66.46
76448;BME280;65284;51.040;13.722;2023-01-05T01:48:56;99416.22;;;11.14;66.39
76448;BME280;65284;51.040;13.722;2023-01-05T01:51:37;99394.63;;;11.17;65.85
76448;BME280;65284;51.040;13.722;2023-01-05T01:54:09;99410.56;;;11.17;65.80
76448;BME280;65284;51.040;13.722;2023-01-05T01:56:40;99415.50;;;11.20;65.67
76448;BME280;65284;51.040;13.722;2023-01-05T01:59:08;99424.31;;;11.21;65.37
76448;BME280;65284;51.040;13.722;2023-01-05T02:01:35;99396.28;;;11.18;65.05
76448;BME280;65284;51.040;13.722;2023-01-05T02:04:02;99412.84;;;11.20;64.99
76448;BME280;65284;51.040;13.722;2023-01-05T02:06:30;99391.53;;;11.28;64.51
76448;BME280;65284;51.040;13.722;2023-01-05T02:08:56;99422.16;;;11.24;64.50
76448;BME280;65284;51.040;13.722;2023-01-05T02:12:01;99405.53;;;11.22;64.92
76448;BME280;65284;51.040;13.722;2023-01-05T02:14:42;99422.50;;;11.21;64.97
76448;BME280;65284;51.040;13.722;2023-01-05T02:17:34;99402.22;;;11.20;64.72
76448;BME280;65284;51.040;13.722;2023-01-05T02:26:32;99385.09;;;11.23;63.88
76448;BME280;65284;51.040;13.722;2023-01-05T02:29:20;99383.63;;;11.20;64.43
76448;BME280;65284;51.040;13.722;2023-01-05T02:32:02;99390.25;;;11.24;63.97
76448;BME280;65284;51.040;13.722;2023-01-05T02:35:00;99359.63;;;11.28;63.45
76448;BME280;65284;51.040;13.722;2023-01-05T02:37:40;99384.19;;;11.30;63.58
76448;BME280;65284;51.040;13.722;2023-01-05T02:40:31;99453.69;;;11.04;67.79
76448;BME280;65284;51.040;13.722;2023-01-05T02:43:01;99402.19;;;10.82;68.78
76448;BME280;65284;51.040;13.722;2023-01-05T02:45:28;99405.75;;;10.75;68.67
76448;BME280;65284;51.040;13.722;2023-01-05T02:47:55;99404.94;;;10.74;67.90
76448;BME280;65284;51.040;13.722;2023-01-05T02:50:26;99404.22;;;10.80;66.84
76448;BME280;65284;51.040;13.722;2023-01-05T02:53:25;99381.78;;;10.83;66.75
76448;BME280;65284;51.040;13.722;2023-01-05T02:55:58;99405.50;;;10.84;66.81
76448;BME280;65284;51.040;13.722;2023-01-05T02:58:33;99379.91;;;10.91;65.88
76448;BME280;65284;51.040;13.722;2023-01-05T03:01:23;99385.56;;;10.88;66.34
76448;BME280;65284;51.040;13.722;2023-01-05T03:03:57;99377.50;;;10.97;66.08
76448;BME280;65284;51.040;13.722;2023-01-05T03:06:36;99378.53;;;10.96;65.01
76448;BME280;65284;51.040;13.722;2023-01-05T03:09:14;99370.50;;;11.04;64.72
76448;BME280;65284;51.040;13.722;2023-01-05T03:11:45;99382.47;;;11.00;65.07
76448;BME280;65284;51.040;13.722;2023-01-05T03:14:38;99356.38;;;11.03;64.42
76448;BME280;65284;51.040;13.722;2023-01-05T03:17:10;99371.97;;;11.06;64.37
76448;BME280;65284;51.040;13.722;2023-01-05T03:19:38;99352.34;;;11.07;63.72
76448;BME280;65284;51.040;13.722;2023-01-05T03:22:28;99363.09;;;11.14;63.44
76448;BME280;65284;51.040;13.722;2023-01-05T03:25:17;99394.16;;;11.13;63.16
76448;BME280;65284;51.040;13.722;2023-01-05T03:28:05;99391.44;;;11.22;62.71
76448;BME280;65284;51.040;13.722;2023-01-05T03:30:59;99370.97;;;11.22;62.85
76448;BME280;65284;51.040;13.722;2023-01-05T03:34:01;99388.50;;;11.31;62.20
76448;BME280;65284;51.040;13.722;2023-01-05T03:36:55;99381.25;;;11.25;62.20
76448;BME280;65284;51.040;13.722;2023-01-05T03:39:24;99389.88;;;11.27;62.07
76448;BME280;65284;51.040;13.722;2023-01-05T03:41:52;99400.16;;;11.30;62.16
76448;BME280;65284;51.040;13.722;2023-01-05T03:44:19;99404.16;;;11.26;62.30
76448;BME280;65284;51.040;13.722;2023-01-05T03:46:46;99382.53;;;11.29;62.16
76448;BME280;65284;51.040;13.722;2023-01-05T03:49:12;99377.69;;;11.33;61.93
76448;BME280;65284;51.040;13.722;2023-01-05T03:51:39;99386.03;;;11.30;61.75
76448;BME280;65284;51.040;13.722;2023-01-05T03:54:07;99366.59;;;11.29;61.50
76448;BME280;65284;51.040;13.722;2023-01-05T03:56:34;99374.84;;;11.34;61.27
76448;BME280;65284;51.040;13.722;2023-01-05T03:59:00;99376.50;;;11.35;61.26
76448;BME280;65284;51.040;13.722;2023-01-05T04:01:27;99392.94;;;11.39;61.09
76448;BME280;65284;51.040;13.722;2023-01-05T04:03:53;99417.31;;;11.43;60.87
76448;BME280;65284;51.040;13.722;2023-01-05T04:06:20;99395.38;;;11.41;60.96
76448;BME280;65284;51.040;13.722;2023-01-05T04:08:46;99388.78;;;11.36;60.92
76448;BME280;65284;51.040;13.722;2023-01-05T04:11:17;99450.56;;;11.38;61.16
76448;BME280;65284;51.040;13.722;2023-01-05T04:13:44;99399.06;;;11.39;61.05
76448;BME280;65284;51.040;13.722;2023-01-05T04:16:10;99415.03;;;11.39;60.90
76448;BME280;65284;51.040;13.722;2023-01-05T04:18:37;99432.63;;;11.41;60.89
76448;BME280;65284;51.040;13.722;2023-01-05T04:21:04;99419.03;;;11.35;61.08
76448;BME280;65284;51.040;13.722;2023-01-05T04:23:31;99420.81;;;11.20;65.22
76448;BME280;65284;51.040;13.722;2023-01-05T04:25:58;99428.53;;;10.92;66.45
76448;BME280;65284;51.040;13.722;2023-01-05T04:28:24;99444.94;;;10.73;68.16
76448;BME280;65284;51.040;13.722;2023-01-05T04:30:53;99438.84;;;10.64;67.82
76448;BME280;65284;51.040;13.722;2023-01-05T04:33:21;99420.25;;;10.64;67.12
76448;BME280;65284;51.040;13.722;2023-01-05T04:35:49;99441.16;;;10.67;67.28
76448;BME280;65284;51.040;13.722;2023-01-05T04:38:15;99404.66;;;10.61;66.97
76448;BME280;65284;51.040;13.722;2023-01-05T04:40:49;99428.69;;;10.67;66.45
76448;BME280;65284;51.040;13.722;2023-01-05T04:43:17;99429.34;;;10.69;66.58
76448;BME280;65284;51.040;13.722;2023-01-05T04:45:47;99422.88;;;10.72;65.55
76448;BME280;65284;51.040;13.722;2023-01-05T04:48:15;99493.06;;;10.78;64.63
76448;BME280;65284;51.040;13.722;2023-01-05T04:50:41;99434.78;;;10.76;65.14
76448;BME280;65284;51.040;13.722;2023-01-05T04:53:08;99444.13;;;10.72;65.44
76448;BME280;65284;51.040;13.722;2023-01-05T04:55:35;99446.75;;;10.72;65.29
76448;BME280;65284;51.040;13.722;2023-01-05T04:58:01;99434.53;;;10.63;65.38
76448;BME280;65284;51.040;13.722;2023-01-05T05:00:37;99437.00;;;10.64;65.59
76448;BME280;65284;51.040;13.722;2023-01-05T05:03:03;99466.09;;;10.58;66.00
76448;BME280;65284;51.040;13.722;2023-01-05T05:05:30;99458.47;;;10.55;65.88
76448;BME280;65284;51.040;13.722;2023-01-05T05:07:57;99469.09;;;10.55;66.17
76448;BME280;65284;51.040;13.722;2023-01-05T05:10:23;99507.56;;;10.59;65.51
76448;BME280;65284;51.040;13.722;2023-01-05T05:12:50;99441.53;;;10.56;65.76
76448;BME280;65284;51.040;13.722;2023-01-05T05:15:16;99501.78;;;10.55;65.44
76448;BME280;65284;51.040;13.722;2023-01-05T05:17:43;99477.38;;;10.60;65.49
76448;BME280;65284;51.040;13.722;2023-01-05T05:20:09;99479.38;;;10.58;65.26
76448;BME280;65284;51.040;13.722;2023-01-05T05:22:36;99479.22;;;10.59;65.39
76448;BME280;65284;51.040;13.722;2023-01-05T05:25:02;99477.69;;;10.65;65.06
76448;BME280;65284;51.040;13.722;2023-01-05T05:27:29;99486.00;;;10.62;65.05
76448;BME280;65284;51.040;13.722;2023-01-05T05:29:56;99466.75;;;10.60;66.40
76448;BME280;65284;51.040;13.722;2023-01-05T05:32:22;99495.00;;;10.53;66.60
76448;BME280;65284;51.040;13.722;2023-01-05T05:34:49;99485.38;;;10.52;66.56
76448;BME280;65284;51.040;13.722;2023-01-05T05:37:15;99480.09;;;10.43;66.27
76448;BME280;65284;51.040;13.722;2023-01-05T05:39:42;99499.03;;;10.40;66.99
76448;BME280;65284;51.040;13.722;2023-01-05T05:42:08;99493.13;;;10.30;67.43
76448;BME280;65284;51.040;13.722;2023-01-05T05:44:34;99502.06;;;10.29;67.91
76448;BME280;65284;51.040;13.722;2023-01-05T05:47:01;99500.72;;;10.25;67.74
76448;BME280;65284;51.040;13.722;2023-01-05T05:49:27;99496.09;;;10.19;68.12
76448;BME280;65284;51.040;13.722;2023-01-05T05:51:54;99498.25;;;10.23;68.28
76448;BME280;65284;51.040;13.722;2023-01-05T05:54:20;99505.06;;;10.18;68.20
76448;BME280;65284;51.040;13.722;2023-01-05T05:56:47;99493.94;;;10.14;67.87
76448;BME280;65284;51.040;13.722;2023-01-05T05:59:13;99492.44;;;10.20;67.71
76448;BME280;65284;51.040;13.722;2023-01-05T06:01:40;99516.31;;;10.20;67.08
76448;BME280;65284;51.040;13.722;2023-01-05T06:04:06;99509.69;;;10.24;66.33
76448;BME280;65284;51.040;13.722;2023-01-05T06:06:33;99488.97;;;10.28;65.88
76448;BME280;65284;51.040;13.722;2023-01-05T06:08:59;99526.59;;;10.31;64.96
76448;BME280;65284;51.040;13.722;2023-01-05T06:11:26;99487.47;;;10.33;64.73
76448;BME280;65284;51.040;13.722;2023-01-05T06:13:52;99483.44;;;10.37;64.73
76448;BME280;65284;51.040;13.722;2023-01-05T06:16:19;99490.09;;;10.41;64.47
76448;BME280;65284;51.040;13.722;2023-01-05T06:18:45;99484.47;;;10.36;64.83
76448;BME280;65284;51.040;13.722;2023-01-05T06:21:12;99487.13;;;10.36;65.07
76448;BME280;65284;51.040;13.722;2023-01-05T06:23:38;99482.16;;;10.33;64.97
76448;BME280;65284;51.040;13.722;2023-01-05T06:26:06;99508.69;;;10.33;65.27
76448;BME280;65284;51.040;13.722;2023-01-05T06:28:32;99431.38;;;10.36;64.88
76448;BME280;65284;51.040;13.722;2023-01-05T06:30:59;99515.50;;;10.36;64.92
76448;BME280;65284;51.040;13.722;2023-01-05T06:33:25;99504.69;;;10.37;65.06
76448;BME280;65284;51.040;13.722;2023-01-05T06:35:52;99515.66;;;10.34;64.70
76448;BME280;65284;51.040;13.722;2023-01-05T06:38:18;99510.69;;;10.31;64.88
76448;BME280;65284;51.040;13.722;2023-01-05T06:40:46;99515.31;;;10.37;64.37
76448;BME280;65284;51.040;13.722;2023-01-05T06:43:13;99507.19;;;10.39;64.44
76448;BME280;65284;51.040;13.722;2023-01-05T06:45:39;99529.75;;;10.35;64.54
76448;BME280;65284;51.040;13.722;2023-01-05T06:48:05;99505.38;;;10.31;64.42
76448;BME280;65284;51.040;13.722;2023-01-05T06:50:32;99560.63;;;10.36;64.06
76448;BME280;65284;51.040;13.722;2023-01-05T06:52:59;99546.19;;;10.38;63.58
76448;BME280;65284;51.040;13.722;2023-01-05T06:55:26;99530.28;;;10.30;64.55
76448;BME280;65284;51.040;13.722;2023-01-05T06:57:52;99546.69;;;10.34;64.32
76448;BME280;65284;51.040;13.722;2023-01-05T07:00:26;99578.38;;;10.35;64.55
76448;BME280;65284;51.040;13.722;2023-01-05T07:02:52;99553.47;;;10.36;64.49
76448;BME280;65284;51.040;13.722;2023-01-05T07:05:19;99531.91;;;10.31;64.64
76448;BME280;65284;51.040;13.722;2023-01-05T07:07:46;99555.13;;;10.29;64.67
76448;BME280;65284;51.040;13.722;2023-01-05T07:10:12;99541.22;;;10.27;64.48
76448;BME280;65284;51.040;13.722;2023-01-05T07:12:39;99556.16;;;10.28;64.30
76448;BME280;65284;51.040;13.722;2023-01-05T07:15:06;99534.56;;;10.31;64.18
76448;BME280;65284;51.040;13.722;2023-01-05T07:17:32;99543.88;;;10.35;64.23
76448;BME280;65284;51.040;13.722;2023-01-05T07:19:59;99529.91;;;10.41;63.73
76448;BME280;65284;51.040;13.722;2023-01-05T07:22:25;99550.81;;;10.36;63.60
76448;BME280;65284;51.040;13.722;2023-01-05T07:24:53;99559.44;;;10.38;63.55
76448;BME280;65284;51.040;13.722;2023-01-05T07:27:19;99582.69;;;10.36;63.80
76448;BME280;65284;51.040;13.722;2023-01-05T07:29:46;99614.19;;;10.39;63.47
76448;BME280;65284;51.040;13.722;2023-01-05T07:32:12;99586.34;;;10.35;63.96
76448;BME280;65284;51.040;13.722;2023-01-05T07:34:39;99598.59;;;10.36;64.04
76448;BME280;65284;51.040;13.722;2023-01-05T07:37:06;99648.69;;;10.39;63.75
76448;BME280;65284;51.040;13.722;2023-01-05T07:39:32;99560.63;;;10.36;64.81
76448;BME280;65284;51.040;13.722;2023-01-05T07:41:58;99572.25;;;10.27;65.23
76448;BME280;65284;51.040;13.722;2023-01-05T07:44:25;99594.13;;;10.20;65.56
76448;BME280;65284;51.040;13.722;2023-01-05T07:46:52;99594.97;;;10.21;65.21
76448;BME280;65284;51.040;13.722;2023-01-05T07:49:18;99579.03;;;10.21;64.91
76448;BME280;65284;51.040;13.722;2023-01-05T07:51:45;99584.34;;;10.21;66.74
76448;BME280;65284;51.040;13.722;2023-01-05T07:54:11;99666.59;;;10.05;68.36
76448;BME280;65284;51.040;13.722;2023-01-05T07:56:38;99615.22;;;9.97;68.36
76448;BME280;65284;51.040;13.722;2023-01-05T07:59:04;99636.91;;;9.85;69.98
76448;BME280;65284;51.040;13.722;2023-01-05T08:01:31;99627.47;;;9.74;71.75
76448;BME280;65284;51.040;13.722;2023-01-05T08:03:57;99583.06;;;9.68;71.39
76448;BME280;65284;51.040;13.722;2023-01-05T08:06:24;99600.59;;;9.61;70.97
76448;BME280;65284;51.040;13.722;2023-01-05T08:08:51;99611.06;;;9.62;70.64
76448;BME280;65284;51.040;13.722;2023-01-05T08:11:18;99600.13;;;9.57;71.52
76448;BME280;65284;51.040;13.722;2023-01-05T08:13:46;99609.06;;;9.64;70.21
76448;BME280;65284;51.040;13.722;2023-01-05T08:16:26;99613.19;;;9.67;70.10
76448;BME280;65284;51.040;13.722;2023-01-05T08:18:57;99645.88;;;9.67;69.70
76448;BME280;65284;51.040;13.722;2023-01-05T08:21:23;99627.16;;;9.77;68.37
76448;BME280;65284;51.040;13.722;2023-01-05T08:23:50;99613.72;;;9.78;68.84
76448;BME280;65284;51.040;13.722;2023-01-05T08:26:22;99632.78;;;9.74;70.09
76448;BME280;65284;51.040;13.722;2023-01-05T08:28:50;99615.69;;;9.68;69.69
76448;BME280;65284;51.040;13.722;2023-01-05T08:31:19;99633.44;;;9.68;70.10
76448;BME280;65284;51.040;13.722;2023-01-05T08:33:46;99632.63;;;9.67;70.13
76448;BME280;65284;51.040;13.722;2023-01-05T08:36:15;99667.91;;;9.68;70.29
76448;BME280;65284;51.040;13.722;2023-01-05T08:38:42;99700.06;;;9.73;70.01
76448;BME280;65284;51.040;13.722;2023-01-05T08:41:15;99629.28;;;9.65;71.21
76448;BME280;65284;51.040;13.722;2023-01-05T08:43:42;99648.00;;;9.55;71.97
76448;BME280;65284;51.040;13.722;2023-01-05T08:46:09;99671.88;;;9.55;71.92
76448;BME280;65284;51.040;13.722;2023-01-05T08:48:35;99653.66;;;9.52;72.59
76448;BME280;65284;51.040;13.722;2023-01-05T08:51:02;99698.69;;;9.44;72.51
76448;BME280;65284;51.040;13.722;2023-01-05T08:53:31;99652.44;;;9.39;73.39
76448;BME280;65284;51.040;13.722;2023-01-05T08:55:58;99683.41;;;9.38;73.08
76448;BME280;65284;51.040;13.722;2023-01-05T08:58:24;99669.84;;;9.41;73.11
76448;BME280;65284;51.040;13.722;2023-01-05T09:00:51;99675.47;;;9.46;72.76
76448;BME280;65284;51.040;13.722;2023-01-05T09:03:19;99670.16;;;9.46;72.15
76448;BME280;65284;51.040;13.722;2023-01-05T09:05:45;99673.53;;;9.56;72.13
76448;BME280;65284;51.040;13.722;2023-01-05T09:08:12;99691.72;;;9.51;71.85
76448;BME280;65284;51.040;13.722;2023-01-05T09:10:38;99674.84;;;9.52;71.92
76448;BME280;65284;51.040;13.722;2023-01-05T09:13:05;99691.06;;;9.49;71.93
76448;BME280;65284;51.040;13.722;2023-01-05T09:15:31;99668.19;;;9.48;72.69
76448;BME280;65284;51.040;13.722;2023-01-05T09:17:57;99669.66;;;9.43;73.35
76448;BME280;65284;51.040;13.722;2023-01-05T09:20:24;99687.41;;;9.42;73.46
76448;BME280;65284;51.040;13.722;2023-01-05T09:22:51;99712.22;;;9.33;73.87
76448;BME280;65284;51.040;13.722;2023-01-05T09:25:17;99667.53;;;9.38;73.71
76448;BME280;65284;51.040;13.722;2023-01-05T09:27:43;99695.72;;;9.47;72.82
76448;BME280;65284;51.040;13.722;2023-01-05T09:30:11;99693.06;;;9.47;73.15
76448;BME280;65284;51.040;13.722;2023-01-05T09:32:38;99719.25;;;9.50;72.78
76448;BME280;65284;51.040;13.722;2023-01-05T09:35:05;99701.34;;;9.61;71.84
76448;BME280;65284;51.040;13.722;2023-01-05T09:37:31;99731.66;;;9.58;72.68
76448;BME280;65284;51.040;13.722;2023-01-05T09:39:58;99690.09;;;9.59;73.15
76448;BME280;65284;51.040;13.722;2023-01-05T09:42:25;99696.22;;;9.59;73.52
76448;BME280;65284;51.040;13.722;2023-01-05T09:44:59;99701.53;;;9.59;72.66
76448;BME280;65284;51.040;13.722;2023-01-05T09:47:35;99697.38;;;9.56;71.88
76448;BME280;65284;51.040;13.722;2023-01-05T09:50:04;99681.31;;;9.66;71.35
76448;BME280;65284;51.040;13.722;2023-01-05T09:52:31;99694.09;;;9.71;71.46
76448;BME280;65284;51.040;13.722;2023-01-05T09:55:18;99711.00;;;9.78;71.03
76448;BME280;65284;51.040;13.722;2023-01-05T09:57:57;99688.16;;;9.85;69.80
76448;BME280;65284;51.040;13.722;2023-01-05T10:00:25;99696.78;;;9.79;70.40
76448;BME280;65284;51.040;13.722;2023-01-05T10:03:04;99709.53;;;9.84;70.49
76448;BME280;65284;51.040;13.722;2023-01-05T10:05:40;99726.91;;;9.78;70.67
76448;BME280;65284;51.040;13.722;2023-01-05T10:08:17;99716.81;;;9.82;70.59
76448;BME280;65284;51.040;13.722;2023-01-05T10:14:11;99720.63;;;9.87;70.11
76448;BME280;65284;51.040;13.722;2023-01-05T10:16:44;99734.25;;;9.92;69.92
76448;BME280;65284;51.040;13.722;2023-01-05T10:19:18;99770.38;;;9.93;68.87
76448;BME280;65284;51.040;13.722;2023-01-05T10:30:04;99718.50;;;9.99;70.02
76448;BME280;65284;51.040;13.722;2023-01-05T10:38:25;99740.53;;;9.83;71.15
76448;BME280;65284;51.040;13.722;2023-01-05T10:41:28;99735.56;;;9.80;71.48
76448;BME280;65284;51.040;13.722;2023-01-05T10:46:48;99729.53;;;9.53;74.62
76448;BME280;65284;51.040;13.722;2023-01-05T10:49:21;99743.69;;;9.36;74.75
76448;BME280;65284;51.040;13.722;2023-01-05T10:51:50;99732.22;;;9.27;75.85
76448;BME280;65284;51.040;13.722;2023-01-05T10:54:35;99757.41;;;9.23;75.76
76448;BME280;65284;51.040;13.722;2023-01-05T11:00:13;99801.69;;;9.39;75.19
76448;BME280;65284;51.040;13.722;2023-01-05T11:02:59;99741.50;;;9.31;76.20
76448;BME280;65284;51.040;13.722;2023-01-05T11:05:31;99781.13;;;9.33;76.55
76448;BME280;65284;51.040;13.722;2023-01-05T11:08:01;99733.69;;;9.22;77.06
76448;BME280;65284;51.040;13.722;2023-01-05T11:10:40;99742.78;;;9.19;76.80
76448;BME280;65284;51.040;13.722;2023-01-05T11:13:21;99741.31;;;9.25;76.47
76448;BME280;65284;51.040;13.722;2023-01-05T11:15:54;99794.00;;;9.28;75.67
76448;BME280;65284;51.040;13.722;2023-01-05T11:21:08;99768.69;;;9.33;75.43
76448;BME280;65284;51.040;13.722;2023-01-05T11:23:38;99745.34;;;9.37;74.52
76448;BME280;65284;51.040;13.722;2023-01-05T11:31:41;99793.47;;;9.50;73.53
76448;BME280;65284;51.040;13.722;2023-01-05T11:37:02;99759.69;;;9.61;73.00
76448;BME280;65284;51.040;13.722;2023-01-05T11:39:38;99769.31;;;9.62;73.06
76448;BME280;65284;51.040;13.722;2023-01-05T11:45:17;99759.78;;;9.85;71.38
76448;BME280;65284;51.040;13.722;2023-01-05T11:47:57;99755.47;;;9.92;71.14
76448;BME280;65284;51.040;13.722;2023-01-05T11:50:26;99778.00;;;9.96;71.26
76448;BME280;65284;51.040;13.722;2023-01-05T11:52:56;99754.47;;;10.01;71.34
76448;BME280;65284;51.040;13.722;2023-01-05T11:55:27;99781.00;;;10.01;71.45
76448;BME280;65284;51.040;13.722;2023-01-05T11:58:19;99816.66;;;9.99;70.52
76448;BME280;65284;51.040;13.722;2023-01-05T12:12:04;99791.69;;;10.18;70.01
76448;BME280;65284;51.040;13.722;2023-01-05T12:17:15;99793.31;;;10.19;69.51
76448;BME280;65284;51.040;13.722;2023-01-05T12:19:55;99779.38;;;10.17;69.89
76448;BME280;65284;51.040;13.722;2023-01-05T12:22:45;99800.97;;;10.22;70.31
76448;BME280;65284;51.040;13.722;2023-01-05T12:25:50;99789.56;;;10.30;69.80
76448;BME280;65284;51.040;13.722;2023-01-05T12:28:50;99786.25;;;10.28;70.00
76448;BME280;65284;51.040;13.722;2023-01-05T12:32:03;99782.34;;;10.06;72.87
76448;BME280;65284;51.040;13.722;2023-01-05T12:48:37;99805.56;;;10.03;71.23
76448;BME280;65284;51.040;13.722;2023-01-05T12:51:22;99836.06;;;9.99;71.68
76448;BME280;65284;51.040;13.722;2023-01-05T12:54:00;99850.66;;;9.95;72.00
76448;BME280;65284;51.040;13.722;2023-01-05T12:56:33;99807.53;;;9.93;71.93
76448;BME280;65284;51.040;13.722;2023-01-05T13:01:55;99839.59;;;9.66;74.34
76448;BME280;65284;51.040;13.722;2023-01-05T13:04:44;99820.28;;;9.47;76.52
76448;BME280;65284;51.040;13.722;2023-01-05T13:07:28;99852.06;;;9.39;76.85
76448;BME280;65284;51.040;13.722;2023-01-05T13:10:00;99835.16;;;9.40;76.81
76448;BME280;65284;51.040;13.722;2023-01-05T13:12:30;99860.31;;;9.36;77.13
76448;BME280;65284;51.040;13.722;2023-01-05T13:15:03;99821.56;;;9.35;77.16
76448;BME280;65284;51.040;13.722;2023-01-05T13:17:33;99846.38;;;9.34;77.19
76448;BME280;65284;51.040;13.722;2023-01-05T13:22:43;99836.50;;;9.44;75.35
76448;BME280;65284;51.040;13.722;2023-01-05T13:25:17;99835.06;;;9.50;74.98
76448;BME280;65284;51.040;13.722;2023-01-05T13:27:44;99833.75;;;9.54;74.49
76448;BME280;65284;51.040;13.722;2023-01-05T13:30:26;99921.59;;;9.59;74.43
76448;BME280;65284;51.040;13.722;2023-01-05T13:33:12;99877.34;;;9.60;74.43
76448;BME280;65284;51.040;13.722;2023-01-05T13:36:12;99868.41;;;9.61;74.66
76448;BME280;65284;51.040;13.722;2023-01-05T13:44:52;99904.38;;;9.63;74.16
76448;BME280;65284;51.040;13.722;2023-01-05T13:50:44;99879.31;;;9.57;74.05
76448;BME280;65284;51.040;13.722;2023-01-05T13:53:24;99875.69;;;9.59;73.90
76448;BME280;65284;51.040;13.722;2023-01-05T13:55:57;99886.63;;;9.55;73.97
76448;BME280;65284;51.040;13.722;2023-01-05T13:58:36;99900.66;;;9.48;76.46
76448;BME280;65284;51.040;13.722;2023-01-05T14:01:07;99930.16;;;9.27;78.80
76448;BME280;65284;51.040;13.722;2023-01-05T14:03:38;99927.06;;;9.14;80.38
76448;BME280;65284;51.040;13.722;2023-01-05T14:06:13;99962.72;;;9.01;81.04
76448;BME280;65284;51.040;13.722;2023-01-05T14:08:47;99918.16;;;8.97;81.06
76448;BME280;65284;51.040;13.722;2023-01-05T14:11:17;99939.66;;;8.94;81.49
76448;BME280;65284;51.040;13.722;2023-01-05T14:19:21;99966.97;;;8.76;82.82
76448;BME280;65284;51.040;13.722;2023-01-05T14:32:18;99985.72;;;8.28;87.50
76448;BME280;65284;51.040;13.722;2023-01-05T14:34:50;99993.97;;;8.25;86.62
76448;BME280;65284;51.040;13.722;2023-01-05T14:37:22;100026.47;;;8.17;85.18
76448;BME280;65284;51.040;13.722;2023-01-05T14:39:50;100032.81;;;8.24;83.80
76448;BME280;65284;51.040;13.722;2023-01-05T14:42:36;100008.59;;;8.19;84.81
76448;BME280;65284;51.040;13.722;2023-01-05T14:45:14;100016.84;;;8.16;83.32
76448;BME280;65284;51.040;13.722;2023-01-05T14:47:47;100052.91;;;8.07;83.04
76448;BME280;65284;51.040;13.722;2023-01-05T14:50:34;100053.78;;;8.08;83.11
76448;BME280;65284;51.040;13.722;2023-01-05T14:53:13;100049.91;;;8.02;84.29
76448;BME280;65284;51.040;13.722;2023-01-05T15:04:07;100052.31;;;7.76;87.57
76448;BME280;65284;51.040;13.722;2023-01-05T15:06:59;100073.19;;;7.69;87.88